Bo Airport

Jump to: basic info | weather | comments

Related pages: nearby airports | nearby navaids | notams | map

Basic information (top)

Codes: KBS GFBO
Location: lon 7.944400, lat -11.761000, elev 328 ft / 100 m msl
Status: medium_airport
Scheduled airline service: yes
Links: Wikipedia Mobile

Weather (top)

Current conditions for Lungi International Airport 94nm (175km) WNW (rec'd 2014/11/26 10:00Z):

GFLL 261000Z 15007KT 9999 BKN011 FEW027CB 26/23 Q1012 RMK CB/NE

Airport forecast for Lungi International Airport 94nm (175km) WNW (rec'd 2014/11/26 12:54Z):

TAF TAF GFLL 261000Z 2612/2718 26010KT 9999 BKN011 TEMP0 2616/2621 24008KT 8000 TS/TSRA BKN010 FEW026CB PROB30 
      TEMPO 2620/2701 09006KT 4000 BR BKN012 FEW027CB

Latest comments (top)

No comments yet for Bo Airport

More... (top)

See also NOTAMs and nearby airports and navaids, or visit the Bo Airport page at the main OurAirports website..